Time;durP1;ratioP1;P1;durP2;ratioP2;P2;SDS_P1;SDS_P2;PMS_P1;PMS_P2;Temp;Humidity;BMP_temperature;BMP_pressure;BME280_temperature;BME280_humidity;BME280_pressure;Samples;Min_cycle;Max_cycle;Signal;HPM_P1;HPM_P2
2023/02/13 00:00:23;;;;;;;34.20;21.10;;;6.50;99.90;;;;;;2071839;28;20076;-72
2023/02/13 00:01:24;;;;;;;35.60;21.02;;;6.50;99.90;;;;;;2079704;28;20024;-73
2023/02/13 00:02:24;;;;;;;34.83;21.52;;;6.60;99.90;;;;;;2079320;28;20044;-73
2023/02/13 00:03:25;;;;;;;39.15;21.92;;;6.50;99.90;;;;;;2079149;28;20172;-73
2023/02/13 00:04:25;;;;;;;35.58;21.95;;;6.60;99.90;;;;;;2079464;28;20259;-73
2023/02/13 00:05:26;;;;;;;40.83;23.58;;;6.60;99.90;;;;;;2079899;28;20029;-73
2023/02/13 00:06:26;;;;;;;38.33;22.38;;;6.60;99.90;;;;;;2077862;28;20034;-72
2023/02/13 00:07:27;;;;;;;39.97;22.83;;;6.60;99.90;;;;;;2076635;28;20045;-73
2023/02/13 00:08:28;;;;;;;40.47;22.83;;;6.50;99.90;;;;;;2071334;28;20107;-73
2023/02/13 00:09:28;;;;;;;42.47;23.27;;;6.60;99.90;;;;;;2073970;28;20037;-73
2023/02/13 00:10:29;;;;;;;41.10;23.88;;;6.60;99.90;;;;;;2080256;28;20700;-73
2023/02/13 00:11:29;;;;;;;40.53;23.98;;;6.60;99.90;;;;;;2074416;28;20087;-73
2023/02/13 00:12:30;;;;;;;41.70;23.75;;;6.60;99.90;;;;;;2078564;28;20017;-73
2023/02/13 00:13:33;;;;;;;45.40;25.55;;;6.50;99.90;;;;;;2080252;28;20047;-73
2023/02/13 00:14:35;;;;;;;41.75;24.42;;;6.60;99.90;;;;;;2074605;28;20068;-73
2023/02/13 00:15:35;;;;;;;40.53;23.77;;;6.60;99.90;;;;;;2076374;28;20025;-73
2023/02/13 00:16:36;;;;;;;41.50;23.83;;;6.50;99.90;;;;;;2077760;28;20397;-73
2023/02/13 00:17:36;;;;;;;39.45;23.27;;;6.50;99.90;;;;;;2084172;28;20105;-73
2023/02/13 00:18:38;;;;;;;36.42;21.42;;;6.50;99.90;;;;;;2079485;28;20045;-73
2023/02/13 00:19:38;;;;;;;32.50;20.88;;;6.50;99.90;;;;;;2074760;28;20683;-72
2023/02/13 00:20:39;;;;;;;33.42;20.50;;;6.40;99.90;;;;;;2078603;28;20043;-72
2023/02/13 00:21:39;;;;;;;32.35;20.35;;;6.40;99.90;;;;;;2075562;28;20104;-72
2023/02/13 00:22:40;;;;;;;33.53;20.83;;;6.40;99.90;;;;;;2077884;28;20052;-72
2023/02/13 00:23:41;;;;;;;30.35;19.17;;;6.40;99.90;;;;;;2079277;28;20060;-72
2023/02/13 00:24:42;;;;;;;31.15;20.08;;;6.40;99.90;;;;;;2077955;28;20136;-72
2023/02/13 00:25:42;;;;;;;30.20;19.05;;;6.40;99.90;;;;;;2077396;28;20117;-73
2023/02/13 00:26:43;;;;;;;32.42;20.48;;;6.40;99.90;;;;;;2079865;28;20508;-73
2023/02/13 00:27:43;;;;;;;31.88;20.17;;;6.40;99.90;;;;;;2079841;28;20036;-73
2023/02/13 00:28:45;;;;;;;33.40;20.42;;;6.40;99.90;;;;;;2075912;28;20029;-73
2023/02/13 00:29:46;;;;;;;33.00;20.25;;;6.40;99.90;;;;;;2096119;28;20156;-73
2023/02/13 00:30:47;;;;;;;35.55;21.60;;;6.40;99.90;;;;;;2095687;28;20039;-73
2023/02/13 00:31:47;;;;;;;35.97;21.88;;;6.40;99.90;;;;;;2080783;28;20641;-72
2023/02/13 00:32:48;;;;;;;37.47;22.17;;;6.50;99.90;;;;;;2078504;28;20017;-73
2023/02/13 00:33:49;;;;;;;42.78;24.85;;;6.50;99.90;;;;;;2078751;28;20112;-72
2023/02/13 00:34:49;;;;;;;50.10;27.92;;;6.50;99.90;;;;;;2076309;28;20079;-72
2023/02/13 00:35:50;;;;;;;43.20;25.13;;;6.40;99.90;;;;;;2076550;28;20029;-73
2023/02/13 00:36:50;;;;;;;42.97;25.13;;;6.40;99.90;;;;;;2077877;28;20036;-72
2023/02/13 00:37:51;;;;;;;40.90;23.98;;;6.30;99.90;;;;;;2081260;28;20029;-72
2023/02/13 00:38:53;;;;;;;39.63;23.42;;;6.30;99.90;;;;;;2079814;28;20753;-72
2023/02/13 00:39:55;;;;;;;42.78;24.58;;;6.30;99.90;;;;;;2079678;28;20033;-73
2023/02/13 00:40:55;;;;;;;40.63;24.08;;;6.30;99.90;;;;;;2080543;28;20037;-73
2023/02/13 00:41:56;;;;;;;43.20;24.23;;;6.30;99.90;;;;;;2080835;28;20123;-73
2023/02/13 00:42:56;;;;;;;40.33;23.35;;;6.30;99.90;;;;;;2075858;28;20040;-71
2023/02/13 00:43:57;;;;;;;38.42;22.42;;;6.30;99.90;;;;;;2076949;28;20045;-71
2023/02/13 00:44:57;;;;;;;39.30;23.13;;;6.30;99.90;;;;;;2076171;28;20119;-74
2023/02/13 00:45:58;;;;;;;38.63;22.60;;;6.30;99.90;;;;;;2081178;28;20033;-73
2023/02/13 00:46:59;;;;;;;37.63;22.35;;;6.30;99.90;;;;;;2079811;28;20029;-72
2023/02/13 00:47:59;;;;;;;39.17;22.80;;;6.30;99.90;;;;;;2076326;28;20647;-72
2023/02/13 00:49:00;;;;;;;41.55;24.23;;;6.40;99.90;;;;;;2079658;28;20040;-71
2023/02/13 00:50:01;;;;;;;42.90;24.70;;;6.40;99.90;;;;;;2088740;28;20024;-71
2023/02/13 00:51:02;;;;;;;42.08;23.92;;;6.50;99.90;;;;;;2091276;28;20635;-71
2023/02/13 00:52:04;;;;;;;40.65;23.98;;;6.50;99.90;;;;;;2083364;28;20074;-71
2023/02/13 00:53:04;;;;;;;42.33;24.13;;;6.60;99.90;;;;;;2085314;28;20407;-71
2023/02/13 00:54:05;;;;;;;43.10;25.50;;;6.60;99.90;;;;;;2094981;28;20032;-71
2023/02/13 00:55:05;;;;;;;39.60;23.23;;;6.60;99.90;;;;;;2078346;28;20037;-72
2023/02/13 00:56:06;;;;;;;39.53;23.67;;;6.60;99.90;;;;;;2080153;28;20018;-72
2023/02/13 00:57:07;;;;;;;41.92;24.30;;;6.60;99.90;;;;;;2075097;28;20025;-72
2023/02/13 00:58:08;;;;;;;38.88;23.77;;;6.70;99.90;;;;;;2074998;28;20022;-72
2023/02/13 00:59:09;;;;;;;40.42;22.85;;;6.70;99.90;;;;;;2080216;28;20029;-72
2023/02/13 01:00:10;;;;;;;44.90;24.92;;;6.70;99.90;;;;;;2092212;28;20227;-72
2023/02/13 01:01:10;;;;;;;42.70;23.30;;;6.70;99.90;;;;;;2086532;28;20207;-72
2023/02/13 01:02:11;;;;;;;42.38;24.00;;;6.80;99.90;;;;;;2078755;28;20093;-72
2023/02/13 01:03:14;;;;;;;41.67;24.20;;;6.80;99.90;;;;;;2085658;28;20126;-73
2023/02/13 01:04:15;;;;;;;42.03;23.73;;;6.80;99.90;;;;;;2078943;28;20120;-73
2023/02/13 01:05:15;;;;;;;41.55;24.20;;;6.80;99.90;;;;;;2080849;28;20119;-72
2023/02/13 01:06:16;;;;;;;40.35;23.05;;;6.80;99.90;;;;;;2079721;28;20056;-72
2023/02/13 01:07:16;;;;;;;42.72;23.77;;;6.80;99.90;;;;;;2081227;28;20487;-72
2023/02/13 01:08:19;;;;;;;37.63;22.33;;;6.80;99.90;;;;;;2077965;28;20171;-73
2023/02/13 01:09:21;;;;;;;41.63;23.08;;;6.80;99.90;;;;;;2097810;28;20031;-73
2023/02/13 01:10:21;;;;;;;41.88;24.13;;;6.80;99.90;;;;;;2091719;28;20102;-73
2023/02/13 01:11:22;;;;;;;40.92;23.10;;;6.80;99.90;;;;;;2077987;28;20037;-73
2023/02/13 01:12:22;;;;;;;38.17;21.95;;;6.80;99.90;;;;;;2078824;28;20583;-73
2023/02/13 01:13:23;;;;;;;38.03;22.25;;;6.80;99.90;;;;;;2077927;28;20033;-72
2023/02/13 01:14:24;;;;;;;39.97;22.20;;;6.80;99.90;;;;;;2088940;28;20106;-73
2023/02/13 01:15:24;;;;;;;38.33;21.77;;;6.80;99.90;;;;;;2087484;28;20519;-73
2023/02/13 01:16:25;;;;;;;39.17;21.63;;;6.80;99.90;;;;;;2087499;28;20041;-73
2023/02/13 01:17:27;;;;;;;39.30;21.98;;;6.80;99.90;;;;;;2095699;28;20114;-73
2023/02/13 01:18:30;;;;;;;40.85;22.27;;;6.80;99.90;;;;;;2081357;28;20021;-73
2023/02/13 01:19:30;;;;;;;37.67;21.85;;;6.80;99.90;;;;;;2094977;28;20052;-73
2023/02/13 01:20:31;;;;;;;41.35;23.40;;;6.80;99.90;;;;;;2086685;28;20051;-73
2023/02/13 01:21:33;;;;;;;39.70;23.13;;;6.80;99.90;;;;;;2078311;28;20040;-73
2023/02/13 01:22:34;;;;;;;41.33;23.10;;;6.90;99.90;;;;;;2069533;28;20061;-73
2023/02/13 01:23:36;;;;;;;41.08;23.33;;;6.80;99.90;;;;;;2086209;28;20024;-73
2023/02/13 01:24:37;;;;;;;39.05;22.58;;;6.80;99.90;;;;;;2089061;28;20039;-73
2023/02/13 01:25:43;;;;;;;37.30;22.05;;;6.70;99.90;;;;;;2074929;28;20029;-73
2023/02/13 01:26:44;;;;;;;38.55;22.15;;;6.70;99.90;;;;;;2080119;28;20029;-73
2023/02/13 01:27:44;;;;;;;40.65;23.13;;;6.80;99.90;;;;;;2080162;28;20028;-71
2023/02/13 01:28:45;;;;;;;40.17;22.63;;;6.70;99.90;;;;;;2081429;28;20518;-72
2023/02/13 01:29:46;;;;;;;38.90;22.33;;;6.70;99.90;;;;;;2078976;28;20075;-72
2023/02/13 01:30:53;;;;;;;41.00;23.63;;;6.70;99.90;;;;;;2077290;28;20102;-72
2023/02/13 01:31:53;;;;;;;40.38;22.77;;;6.70;99.90;;;;;;2075813;28;20044;-72
2023/02/13 01:32:54;;;;;;;42.63;23.13;;;6.80;99.90;;;;;;2079288;28;20121;-73
2023/02/13 01:33:56;;;;;;;37.22;21.85;;;6.80;99.90;;;;;;2076798;28;20021;-73
2023/02/13 01:34:57;;;;;;;37.78;21.75;;;6.80;99.90;;;;;;2079322;28;20055;-73
2023/02/13 01:35:59;;;;;;;37.55;21.67;;;6.70;99.90;;;;;;2079178;28;20044;-72
2023/02/13 01:36:59;;;;;;;38.25;21.60;;;6.70;99.90;;;;;;2079187;28;20036;-73
2023/02/13 01:38:00;;;;;;;39.95;22.55;;;6.70;99.90;;;;;;2079095;28;20035;-74
2023/02/13 01:39:00;;;;;;;43.33;23.58;;;6.70;99.90;;;;;;2075364;28;20029;-72
2023/02/13 01:40:01;;;;;;;39.35;22.80;;;6.80;99.90;;;;;;2068436;28;20453;-73
2023/02/13 01:41:05;;;;;;;40.03;22.33;;;6.70;99.90;;;;;;2071797;28;20433;-73
2023/02/13 01:42:15;;;;;;;37.63;22.35;;;6.80;99.90;;;;;;2082798;28;20033;-72
2023/02/13 01:43:16;;;;;;;42.72;23.75;;;6.70;99.90;;;;;;2076840;28;20117;-77
2023/02/13 01:44:53;;;;;;;41.45;24.00;;;6.70;99.90;;;;;;2074875;28;20029;-78
2023/02/13 01:45:55;;;;;;;37.45;21.70;;;6.70;99.90;;;;;;2083233;28;20053;-78
2023/02/13 01:46:56;;;;;;;40.17;22.25;;;6.70;99.90;;;;;;2076038;28;20026;-79
2023/02/13 01:48:20;;;;;;;39.88;22.65;;;6.70;99.90;;;;;;2077593;28;20121;-80
2023/02/13 01:49:24;;;;;;;39.47;21.90;;;6.70;99.90;;;;;;2074669;28;20036;-79
2023/02/13 01:50:35;;;;;;;42.03;22.40;;;6.70;99.90;;;;;;2082999;28;20036;-78
2023/02/13 01:51:37;;;;;;;38.67;21.48;;;6.70;99.90;;;;;;2088615;28;20111;-79
2023/02/13 01:52:42;;;;;;;37.50;21.42;;;6.70;99.90;;;;;;2091901;28;20037;-78
2023/02/13 01:53:48;;;;;;;36.58;20.88;;;6.80;99.90;;;;;;2096990;28;20446;-79
2023/02/13 01:54:49;;;;;;;37.15;21.20;;;6.80;99.90;;;;;;2079692;28;20029;-78
2023/02/13 01:55:57;;;;;;;36.65;21.15;;;6.80;99.90;;;;;;2067268;28;21173;-79
2023/02/13 01:57:09;;;;;;;35.20;21.02;;;6.80;99.90;;;;;;2080959;28;20025;-79
2023/02/13 01:58:13;;;;;;;36.85;21.25;;;6.80;99.90;;;;;;2087024;28;20184;-78
2023/02/13 01:59:22;;;;;;;37.72;21.70;;;6.80;99.90;;;;;;2085990;28;20088;-78
2023/02/13 02:00:23;;;;;;;37.58;21.25;;;6.80;99.90;;;;;;2084210;28;20535;-79
2023/02/13 02:01:26;;;;;;;47.40;24.58;;;6.80;99.90;;;;;;2078202;28;20500;-79
2023/02/13 02:02:32;;;;;;;40.90;22.63;;;6.80;99.90;;;;;;2074915;28;20485;-79
2023/02/13 02:03:41;;;;;;;43.70;23.70;;;6.80;99.90;;;;;;2076955;28;20040;-79
2023/02/13 02:04:46;;;;;;;47.83;25.10;;;6.90;99.90;;;;;;2079554;28;20061;-78
2023/02/13 02:05:53;;;;;;;45.40;24.10;;;6.90;99.90;;;;;;2089081;28;20032;-77
2023/02/13 02:06:57;;;;;;;43.45;24.20;;;6.90;99.90;;;;;;2085059;28;20529;-77
2023/02/13 02:08:06;;;;;;;45.38;24.90;;;6.90;99.90;;;;;;2064453;28;20108;-77
2023/02/13 02:09:15;;;;;;;54.20;27.40;;;6.90;99.90;;;;;;2075388;28;20017;-77
2023/02/13 02:10:18;;;;;;;57.08;28.38;;;6.90;99.90;;;;;;2082079;28;20032;-78
2023/02/13 02:11:29;;;;;;;62.08;30.90;;;6.90;99.90;;;;;;2071531;28;20032;-77
2023/02/13 02:12:57;;;;;;;52.70;28.38;;;6.90;99.90;;;;;;2089543;28;20718;-76
2023/02/13 02:13:58;;;;;;;54.25;27.05;;;6.90;99.90;;;;;;2081922;28;20052;-77
2023/02/13 02:15:07;;;;;;;50.05;26.52;;;6.90;99.90;;;;;;2083344;28;20041;-76
2023/02/13 02:16:08;;;;;;;55.92;27.75;;;6.90;99.90;;;;;;2072163;28;20079;-78
2023/02/13 02:17:10;;;;;;;55.30;28.35;;;6.90;99.90;;;;;;2066160;28;20447;-77
2023/02/13 02:18:15;;;;;;;53.78;28.45;;;6.90;99.90;;;;;;2072418;28;20033;-77
2023/02/13 02:19:36;;;;;;;61.55;31.83;;;6.90;99.90;;;;;;2063917;28;20030;-77
2023/02/13 02:21:00;;;;;;;63.60;31.05;;;6.90;99.90;;;;;;2085737;28;20027;-77
2023/02/13 02:22:28;;;;;;;60.85;30.27;;;6.90;99.90;;;;;;2084275;28;20029;-78
2023/02/13 02:24:21;;;;;;;59.60;29.63;;;6.90;99.90;;;;;;2093281;28;20024;-79
2023/02/13 02:25:44;;;;;;;61.25;30.20;;;6.90;99.90;;;;;;2043278;28;20035;-79
2023/02/13 02:27:15;;;;;;;67.78;31.65;;;6.90;99.90;;;;;;2052998;28;20772;-78
2023/02/13 02:28:54;;;;;;;59.83;30.30;;;6.80;99.90;;;;;;2082353;28;20593;-78
2023/02/13 02:30:32;;;;;;;64.18;30.27;;;6.80;99.90;;;;;;2080950;28;20141;-78
2023/02/13 02:32:13;;;;;;;65.90;31.17;;;6.80;99.90;;;;;;2074531;28;20045;-78
2023/02/13 02:33:48;;;;;;;68.63;32.95;;;6.80;99.90;;;;;;2085074;28;20036;-79
2023/02/13 02:35:17;;;;;;;65.43;31.60;;;6.80;99.90;;;;;;2076009;28;20079;-80
2023/02/13 02:36:26;;;;;;;64.13;30.25;;;6.80;99.90;;;;;;2076512;28;20026;-79
2023/02/13 02:37:36;;;;;;;66.63;30.83;;;6.80;99.90;;;;;;2094550;28;20538;-79
2023/02/13 02:39:20;;;;;;;68.15;32.03;;;6.80;99.90;;;;;;2087218;28;20032;-79
2023/02/13 02:40:31;;;;;;;66.05;30.58;;;6.80;99.90;;;;;;2076029;28;20067;-79
2023/02/13 02:41:49;;;;;;;71.22;30.92;;;6.80;99.90;;;;;;2069475;28;20032;-78
2023/02/13 02:43:16;;;;;;;64.10;30.95;;;6.80;99.90;;;;;;2069090;28;20026;-80
2023/02/13 02:44:46;;;;;;;70.80;31.60;;;6.80;99.90;;;;;;2075139;28;20025;-79
2023/02/13 02:46:07;;;;;;;69.15;31.00;;;6.80;99.90;;;;;;2078594;28;20502;-78
2023/02/13 02:50:08;;;;;;;74.00;31.00;;;6.70;99.90;;;;;;2077309;28;20017;-78
2023/02/13 02:51:38;;;;;;;67.82;29.67;;;6.70;99.90;;;;;;2095281;28;20063;-76
2023/02/13 02:52:44;;;;;;;72.97;29.70;;;6.70;99.90;;;;;;2085978;28;20116;-79
2023/02/13 02:55:49;;;;;;;62.90;29.02;;;6.70;99.90;;;;;;2084943;28;20045;-79
2023/02/13 02:56:53;;;;;;;61.53;27.75;;;6.70;99.90;;;;;;2087274;28;20021;-79
2023/02/13 03:06:19;;;;;;;64.63;29.33;;;6.70;99.90;;;;;;2079808;28;20028;-78
2023/02/13 03:07:20;;;;;;;58.03;27.08;;;6.70;99.90;;;;;;2082274;28;20045;-78
2023/02/13 03:13:17;;;;;;;58.58;27.52;;;6.80;99.90;;;;;;2081831;28;20032;-77
2023/02/13 03:13:20;;;;;;;61.22;28.55;;;6.80;99.90;;;;;;2089887;28;20036;-77
2023/02/13 03:13:58;;;;;;;60.42;27.83;;;6.80;99.90;;;;;;2079936;28;20539;-78
2023/02/13 03:14:59;;;;;;;60.80;28.92;;;6.80;99.90;;;;;;2074071;28;20154;-78
2023/02/13 03:22:19;;;;;;;63.17;28.15;;;6.70;99.90;;;;;;2069086;28;20518;-78
2023/02/13 03:23:34;;;;;;;67.28;30.33;;;6.70;99.90;;;;;;2089543;28;20036;-78
2023/02/13 03:25:00;;;;;;;64.95;28.92;;;6.70;99.90;;;;;;2084600;28;20044;-79
2023/02/13 03:26:04;;;;;;;59.35;27.35;;;6.70;99.90;;;;;;2077383;28;20502;-78
2023/02/13 03:30:43;;;;;;;55.53;26.90;;;6.80;99.90;;;;;;2099912;28;20043;-77
2023/02/13 03:32:00;;;;;;;54.92;27.02;;;6.80;99.90;;;;;;2087315;28;20904;-79
2023/02/13 03:33:31;;;;;;;63.45;28.48;;;6.80;99.90;;;;;;2068390;28;20029;-77
2023/02/13 03:37:53;;;;;;;68.80;29.42;;;6.80;99.90;;;;;;2095025;28;20564;-78
2023/02/13 03:39:14;;;;;;;62.88;29.88;;;6.80;99.90;;;;;;2085871;28;20082;-78
2023/02/13 03:40:22;;;;;;;63.85;29.02;;;6.80;99.90;;;;;;2079023;28;20026;-78
2023/02/13 03:41:40;;;;;;;54.17;27.55;;;6.80;99.90;;;;;;2087526;28;20187;-78
2023/02/13 03:42:43;;;;;;;65.75;30.15;;;6.80;99.90;;;;;;2080422;28;20116;-78
2023/02/13 03:44:00;;;;;;;62.67;30.33;;;6.70;99.90;;;;;;2083046;28;20029;-77
2023/02/13 03:46:32;;;;;;;58.60;28.65;;;6.80;99.90;;;;;;2077855;28;20025;-79
2023/02/13 03:47:34;;;;;;;54.38;26.45;;;6.70;99.90;;;;;;2075357;28;20064;-77
2023/02/13 03:50:06;;;;;;;53.55;27.00;;;6.80;99.90;;;;;;2078446;28;20029;-77
2023/02/13 03:51:09;;;;;;;52.83;26.65;;;6.70;99.90;;;;;;2080760;28;20120;-78
2023/02/13 03:52:18;;;;;;;50.88;26.70;;;6.70;99.90;;;;;;2070590;28;20042;-79
2023/02/13 03:53:18;;;;;;;60.78;29.02;;;6.70;99.90;;;;;;2069392;28;20047;-79
2023/02/13 04:00:04;;;;;;;52.55;26.00;;;6.60;99.90;;;;;;2083823;28;20569;-78
2023/02/13 04:01:17;;;;;;;55.47;26.95;;;6.60;99.90;;;;;;2079557;28;20033;-77
2023/02/13 04:02:23;;;;;;;61.63;29.30;;;6.70;99.90;;;;;;2095553;28;20102;-79
2023/02/13 04:03:30;;;;;;;59.83;29.25;;;6.60;99.90;;;;;;2086619;28;20040;-79
2023/02/13 04:04:42;;;;;;;64.53;29.65;;;6.60;99.90;;;;;;2071577;28;20089;-79
2023/02/13 04:05:48;;;;;;;62.55;29.73;;;6.60;99.90;;;;;;2072254;28;20038;-78
2023/02/13 04:07:09;;;;;;;58.10;28.15;;;6.60;99.90;;;;;;2079012;28;20678;-79
2023/02/13 04:08:10;;;;;;;60.20;28.70;;;6.60;99.90;;;;;;2087193;28;20526;-81
2023/02/13 04:09:11;;;;;;;57.90;28.63;;;6.60;99.90;;;;;;2079153;28;20040;-79
2023/02/13 04:10:15;;;;;;;65.22;29.50;;;6.60;99.90;;;;;;2077544;28;20135;-79
2023/02/13 04:11:32;;;;;;;62.28;30.02;;;6.50;99.90;;;;;;2082192;28;20029;-79
2023/02/13 04:13:07;;;;;;;59.67;28.83;;;6.50;99.90;;;;;;2073316;28;20141;-77
2023/02/13 04:14:19;;;;;;;60.00;29.27;;;6.50;99.90;;;;;;2084579;28;20394;-78
2023/02/13 04:15:42;;;;;;;59.45;29.02;;;6.50;99.90;;;;;;2079884;28;20044;-78
2023/02/13 04:16:48;;;;;;;58.50;28.73;;;6.50;99.90;;;;;;2069614;28;20095;-78
2023/02/13 04:17:55;;;;;;;54.10;27.35;;;6.50;99.90;;;;;;2068520;28;20033;-79
2023/02/13 04:18:56;;;;;;;48.97;26.23;;;6.50;99.90;;;;;;2071372;28;20464;-78
2023/02/13 04:19:57;;;;;;;47.10;25.65;;;6.50;99.90;;;;;;2079474;28;20033;-77
2023/02/13 04:21:06;;;;;;;47.80;25.42;;;6.50;99.90;;;;;;2073620;28;20030;-79
2023/02/13 04:22:10;;;;;;;48.13;25.88;;;6.60;99.90;;;;;;2077611;28;20025;-78
2023/02/13 04:23:11;;;;;;;50.20;26.10;;;6.60;99.90;;;;;;2079350;28;20029;-79
2023/02/13 04:24:12;;;;;;;47.80;25.65;;;6.60;99.90;;;;;;2068081;28;20092;-79
2023/02/13 04:25:15;;;;;;;48.40;25.27;;;6.60;99.90;;;;;;2071665;28;20083;-76
2023/02/13 04:26:19;;;;;;;55.42;28.38;;;6.60;99.90;;;;;;2075721;28;20037;-80
2023/02/13 04:27:20;;;;;;;50.38;27.40;;;6.60;99.90;;;;;;2096106;28;20059;-78
2023/02/13 04:28:21;;;;;;;55.92;27.85;;;6.60;99.90;;;;;;2096347;28;20607;-77
2023/02/13 04:29:23;;;;;;;57.05;28.58;;;6.60;99.90;;;;;;2081248;28;20037;-80
2023/02/13 04:30:24;;;;;;;58.13;29.45;;;6.50;99.90;;;;;;2078868;28;20060;-82
2023/02/13 04:31:24;;;;;;;63.50;30.27;;;6.50;99.90;;;;;;2078392;28;20025;-80
2023/02/13 04:32:25;;;;;;;59.20;29.00;;;6.50;99.90;;;;;;2095009;28;20032;-80
2023/02/13 04:33:25;;;;;;;53.33;28.17;;;6.50;99.90;;;;;;2069209;28;20080;-79
2023/02/13 04:34:26;;;;;;;56.92;28.25;;;6.50;99.90;;;;;;2075518;28;20283;-79
2023/02/13 04:35:26;;;;;;;58.67;28.45;;;6.40;99.90;;;;;;2096834;28;20101;-79
2023/02/13 04:36:27;;;;;;;63.03;30.00;;;6.40;99.90;;;;;;2096573;28;20032;-80
2023/02/13 04:37:27;;;;;;;63.67;28.98;;;6.40;99.90;;;;;;2088688;28;20052;-79
2023/02/13 04:38:28;;;;;;;59.05;29.27;;;6.40;99.90;;;;;;2062513;28;20125;-79
2023/02/13 04:39:28;;;;;;;58.25;29.30;;;6.40;99.90;;;;;;2078797;28;20034;-79
2023/02/13 04:40:29;;;;;;;58.40;28.08;;;6.40;99.90;;;;;;2086758;28;20123;-78
2023/02/13 04:41:30;;;;;;;58.70;27.88;;;6.40;99.90;;;;;;2077219;28;20014;-78
2023/02/13 04:42:30;;;;;;;60.17;29.17;;;6.40;99.90;;;;;;2083389;28;20037;-74
2023/02/13 04:43:31;;;;;;;57.08;28.13;;;6.40;99.90;;;;;;2070460;28;20045;-85
2023/02/13 04:44:31;;;;;;;52.95;28.73;;;6.40;99.90;;;;;;2076866;28;20020;-74
2023/02/13 04:45:32;;;;;;;58.22;29.25;;;6.40;99.90;;;;;;2074527;28;20515;-84
2023/02/13 04:46:32;;;;;;;60.10;28.83;;;6.40;99.90;;;;;;2081455;28;20040;-78
2023/02/13 04:47:33;;;;;;;58.95;29.52;;;6.40;99.90;;;;;;2071952;28;20026;-79
2023/02/13 04:48:33;;;;;;;54.10;28.58;;;6.40;99.90;;;;;;2075453;28;20429;-78
2023/02/13 04:49:34;;;;;;;56.63;27.90;;;6.30;99.90;;;;;;2079346;28;20044;-78
2023/02/13 04:50:34;;;;;;;57.58;27.88;;;6.30;99.90;;;;;;2079221;28;20030;-77
2023/02/13 04:51:35;;;;;;;61.80;29.50;;;6.30;99.90;;;;;;2082383;28;20032;-78
2023/02/13 04:52:35;;;;;;;53.40;27.55;;;6.30;99.90;;;;;;2080934;28;20027;-77
2023/02/13 04:53:36;;;;;;;58.30;28.88;;;6.30;99.90;;;;;;2075231;28;20030;-77
2023/02/13 04:54:36;;;;;;;55.00;27.98;;;6.30;99.90;;;;;;2081370;28;20036;-77
2023/02/13 04:55:37;;;;;;;60.08;29.10;;;6.30;99.90;;;;;;2095275;28;20019;-77
2023/02/13 04:56:37;;;;;;;57.70;28.08;;;6.30;99.90;;;;;;2078877;28;20033;-78
2023/02/13 04:57:38;;;;;;;55.95;28.45;;;6.30;99.90;;;;;;2070474;28;20038;-78
2023/02/13 04:58:40;;;;;;;55.22;27.67;;;6.30;99.90;;;;;;2095017;28;20089;-77
2023/02/13 04:59:41;;;;;;;56.67;28.80;;;6.30;99.90;;;;;;2097362;28;20116;-78
2023/02/13 05:00:41;;;;;;;56.45;28.48;;;6.30;99.90;;;;;;2079752;28;20029;-78
2023/02/13 05:01:42;;;;;;;56.35;28.38;;;6.30;99.90;;;;;;2079914;28;20055;-77
2023/02/13 05:02:43;;;;;;;50.60;26.48;;;6.30;99.90;;;;;;2079950;28;20075;-77
2023/02/13 05:03:43;;;;;;;50.28;27.25;;;6.30;99.90;;;;;;2081348;28;20056;-77
2023/02/13 05:04:44;;;;;;;50.25;26.85;;;6.20;99.90;;;;;;2076018;28;20021;-77
2023/02/13 05:05:44;;;;;;;48.30;26.35;;;6.30;99.90;;;;;;2077878;28;20042;-77
2023/02/13 05:06:45;;;;;;;45.83;26.15;;;6.20;99.90;;;;;;2078850;28;20037;-77
2023/02/13 05:07:46;;;;;;;50.90;26.13;;;6.20;99.90;;;;;;2080839;28;20389;-78
2023/02/13 05:08:46;;;;;;;51.35;26.90;;;6.20;99.90;;;;;;2079265;28;20060;-77
2023/02/13 05:09:47;;;;;;;51.35;26.05;;;6.30;99.90;;;;;;2075176;28;20492;-78
2023/02/13 05:10:47;;;;;;;49.40;26.48;;;6.20;99.90;;;;;;2063430;28;20029;-77
2023/02/13 05:11:51;;;;;;;45.65;25.00;;;6.20;99.90;;;;;;2065035;28;20579;-77
2023/02/13 05:12:52;;;;;;;44.63;23.92;;;6.20;99.90;;;;;;2068707;28;20057;-78
2023/02/13 05:13:52;;;;;;;51.67;25.95;;;6.20;99.90;;;;;;2074780;28;20440;-79
2023/02/13 05:14:53;;;;;;;46.60;24.40;;;6.20;99.90;;;;;;2081421;28;20045;-79
2023/02/13 05:15:53;;;;;;;44.72;24.60;;;6.20;99.90;;;;;;2070220;28;20026;-78
2023/02/13 05:16:54;;;;;;;45.92;24.90;;;6.30;99.90;;;;;;2081351;28;20061;-80
2023/02/13 05:17:55;;;;;;;47.17;25.02;;;6.20;99.90;;;;;;2079792;28;20025;-79
2023/02/13 05:18:55;;;;;;;45.33;24.27;;;6.20;99.90;;;;;;2080373;28;20079;-79
2023/02/13 05:19:56;;;;;;;49.30;25.83;;;6.20;99.90;;;;;;2080171;28;20029;-79
2023/02/13 05:23:35;;;;;;;46.00;23.90;;;6.20;99.90;;;;;;2088934;28;20089;-77
2023/02/13 05:24:36;;;;;;;47.78;25.02;;;6.20;99.90;;;;;;2095587;28;20526;-77
2023/02/13 05:25:38;;;;;;;47.85;25.02;;;6.20;99.90;;;;;;2083721;28;20029;-78
2023/02/13 05:26:38;;;;;;;48.58;25.13;;;6.20;99.90;;;;;;2084474;28;20067;-78
2023/02/13 05:27:39;;;;;;;46.88;25.33;;;6.30;99.90;;;;;;2096243;28;20058;-77
2023/02/13 05:29:59;;;;;;;51.20;25.83;;;6.30;99.90;;;;;;2077425;28;20660;-77
2023/02/13 05:30:59;;;;;;;49.35;25.58;;;6.30;99.90;;;;;;2078372;28;20056;-77
2023/02/13 05:32:00;;;;;;;44.97;23.98;;;6.30;99.90;;;;;;2077495;28;20908;-75
2023/02/13 05:33:01;;;;;;;43.15;23.63;;;6.30;99.90;;;;;;2084846;28;20020;-75
2023/02/13 05:34:01;;;;;;;48.80;25.30;;;6.30;99.90;;;;;;2086878;28;20037;-75
2023/02/13 05:35:02;;;;;;;46.88;24.75;;;6.30;99.90;;;;;;2097869;28;20586;-75
2023/02/13 05:36:03;;;;;;;52.72;25.20;;;6.30;99.90;;;;;;2067114;28;20030;-75
2023/02/13 05:37:04;;;;;;;47.33;25.52;;;6.30;99.90;;;;;;2071049;28;20087;-75
2023/02/13 05:38:04;;;;;;;49.40;25.58;;;6.20;99.90;;;;;;2081986;28;20102;-75
2023/02/13 05:39:05;;;;;;;50.95;26.42;;;6.20;99.90;;;;;;2079729;28;20029;-74
2023/02/13 05:40:06;;;;;;;48.47;24.92;;;6.20;99.90;;;;;;2094754;28;20112;-74
2023/02/13 05:41:07;;;;;;;48.10;25.92;;;6.20;99.90;;;;;;2094648;28;20028;-75
2023/02/13 05:42:09;;;;;;;44.95;24.88;;;6.20;99.90;;;;;;2078320;28;20514;-75
2023/02/13 05:43:09;;;;;;;45.10;24.02;;;6.30;99.90;;;;;;2081136;28;20026;-75
2023/02/13 05:44:10;;;;;;;46.88;25.83;;;6.30;99.90;;;;;;2080232;28;20507;-75
2023/02/13 05:45:11;;;;;;;44.97;25.08;;;6.30;99.90;;;;;;2074043;28;20050;-74
2023/02/13 05:46:11;;;;;;;47.08;25.70;;;6.30;99.90;;;;;;2087289;28;20487;-73
2023/02/13 05:47:12;;;;;;;45.05;25.20;;;6.30;99.90;;;;;;2088436;28;20025;-76
2023/02/13 05:48:12;;;;;;;44.45;25.10;;;6.30;99.90;;;;;;2075745;28;20064;-75
2023/02/13 05:49:14;;;;;;;51.10;26.60;;;6.30;99.90;;;;;;2093850;28;20038;-75
2023/02/13 05:50:15;;;;;;;47.90;26.35;;;6.30;99.90;;;;;;2084783;28;20053;-77
2023/02/13 05:51:15;;;;;;;47.97;25.55;;;6.30;99.90;;;;;;2083247;28;20051;-78
2023/02/13 05:52:16;;;;;;;46.50;24.85;;;6.30;99.90;;;;;;2089002;28;20052;-77
2023/02/13 05:53:16;;;;;;;52.28;26.63;;;6.30;99.90;;;;;;2079499;28;20045;-68
2023/02/13 05:54:17;;;;;;;45.10;25.20;;;6.30;99.90;;;;;;2076144;28;20076;-69
2023/02/13 05:55:18;;;;;;;46.40;24.92;;;6.30;99.90;;;;;;2079907;28;20041;-69
2023/02/13 05:56:18;;;;;;;46.65;25.33;;;6.20;99.90;;;;;;2081016;28;20039;-69
2023/02/13 05:57:19;;;;;;;49.95;26.23;;;6.30;99.90;;;;;;2078992;28;20040;-69
2023/02/13 05:58:20;;;;;;;47.30;26.33;;;6.20;99.90;;;;;;2078735;28;20018;-70
2023/02/13 05:59:20;;;;;;;48.35;26.10;;;6.20;99.90;;;;;;2078401;28;20143;-70
2023/02/13 06:00:21;;;;;;;47.95;24.67;;;6.20;99.90;;;;;;2081376;28;20026;-70
2023/02/13 06:01:23;;;;;;;47.35;24.58;;;6.20;99.90;;;;;;2079961;28;20742;-69
2023/02/13 06:02:23;;;;;;;51.88;25.52;;;6.30;99.90;;;;;;2080135;28;20036;-69
2023/02/13 06:03:24;;;;;;;51.65;25.77;;;6.30;99.90;;;;;;2079137;28;20079;-68
2023/02/13 06:04:25;;;;;;;48.60;25.80;;;6.30;99.90;;;;;;2080653;28;20537;-69
2023/02/13 06:05:26;;;;;;;45.55;24.90;;;6.30;99.90;;;;;;2075403;28;20045;-69
2023/02/13 06:06:26;;;;;;;47.95;26.02;;;6.30;99.90;;;;;;2077692;28;20503;-70
2023/02/13 06:07:27;;;;;;;46.00;25.67;;;6.30;99.90;;;;;;2082692;28;20539;-69
2023/02/13 06:08:27;;;;;;;47.10;25.38;;;6.30;99.90;;;;;;2077651;28;20033;-68
2023/02/13 06:09:28;;;;;;;52.05;26.08;;;6.30;99.90;;;;;;2077712;28;20037;-69
2023/02/13 06:10:29;;;;;;;49.63;24.88;;;6.30;99.90;;;;;;2081745;28;20177;-70
2023/02/13 06:11:29;;;;;;;49.78;24.80;;;6.30;99.90;;;;;;2075549;28;20060;-69
2023/02/13 06:12:30;;;;;;;47.60;24.70;;;6.30;99.90;;;;;;2079876;28;20036;-69
2023/02/13 06:13:30;;;;;;;46.97;24.48;;;6.30;99.90;;;;;;2077009;28;20107;-69